sensor_id;sensor_type;location;lat;lon;timestamp;temperature;humidity
20672;DHT22;10495;50.922;4.760;2023-02-18T00:01:29;13.10;91.90
20672;DHT22;10495;50.922;4.760;2023-02-18T00:03:56;13.10;91.70
20672;DHT22;10495;50.922;4.760;2023-02-18T00:06:29;13.10;91.80
20672;DHT22;10495;50.922;4.760;2023-02-18T00:08:55;13.00;91.80
20672;DHT22;10495;50.922;4.760;2023-02-18T00:11:23;12.70;92.30
20672;DHT22;10495;50.922;4.760;2023-02-18T00:13:51;12.80;92.30
20672;DHT22;10495;50.922;4.760;2023-02-18T00:16:17;12.80;92.30
20672;DHT22;10495;50.922;4.760;2023-02-18T00:18:42;12.80;92.50
20672;DHT22;10495;50.922;4.760;2023-02-18T00:21:08;13.00;92.10
20672;DHT22;10495;50.922;4.760;2023-02-18T00:23:34;13.00;92.00
20672;DHT22;10495;50.922;4.760;2023-02-18T00:26:09;13.00;91.70
20672;DHT22;10495;50.922;4.760;2023-02-18T00:28:35;12.80;92.10
20672;DHT22;10495;50.922;4.760;2023-02-18T00:31:11;12.80;92.20
20672;DHT22;10495;50.922;4.760;2023-02-18T00:33:38;12.80;92.30
20672;DHT22;10495;50.922;4.760;2023-02-18T00:36:06;12.70;92.40
20672;DHT22;10495;50.922;4.760;2023-02-18T00:38:32;12.70;92.50
20672;DHT22;10495;50.922;4.760;2023-02-18T00:40:58;12.80;92.40
20672;DHT22;10495;50.922;4.760;2023-02-18T00:43:24;12.90;92.10
20672;DHT22;10495;50.922;4.760;2023-02-18T00:45:50;12.90;92.00
20672;DHT22;10495;50.922;4.760;2023-02-18T00:48:16;12.60;92.40
20672;DHT22;10495;50.922;4.760;2023-02-18T00:50:42;12.60;92.60
20672;DHT22;10495;50.922;4.760;2023-02-18T00:53:07;12.70;92.30
20672;DHT22;10495;50.922;4.760;2023-02-18T00:55:38;12.80;92.30
20672;DHT22;10495;50.922;4.760;2023-02-18T00:58:04;12.80;92.10
20672;DHT22;10495;50.922;4.760;2023-02-18T01:00:29;12.90;92.10
20672;DHT22;10495;50.922;4.760;2023-02-18T01:02:55;12.90;92.00
20672;DHT22;10495;50.922;4.760;2023-02-18T01:05:21;12.70;92.20
20672;DHT22;10495;50.922;4.760;2023-02-18T01:07:46;12.50;92.70
20672;DHT22;10495;50.922;4.760;2023-02-18T01:10:12;12.70;92.30
20672;DHT22;10495;50.922;4.760;2023-02-18T01:12:38;12.60;92.50
20672;DHT22;10495;50.922;4.760;2023-02-18T01:15:05;12.50;92.70
20672;DHT22;10495;50.922;4.760;2023-02-18T01:17:31;12.60;92.90
20672;DHT22;10495;50.922;4.760;2023-02-18T01:19:56;12.80;92.30
20672;DHT22;10495;50.922;4.760;2023-02-18T01:22:22;12.80;92.20
20672;DHT22;10495;50.922;4.760;2023-02-18T01:24:48;13.00;92.10
20672;DHT22;10495;50.922;4.760;2023-02-18T01:27:13;12.90;92.20
20672;DHT22;10495;50.922;4.760;2023-02-18T01:29:39;12.80;92.20
20672;DHT22;10495;50.922;4.760;2023-02-18T01:32:05;12.80;92.30
20672;DHT22;10495;50.922;4.760;2023-02-18T01:34:30;12.80;92.10
20672;DHT22;10495;50.922;4.760;2023-02-18T01:36:56;12.80;92.20
20672;DHT22;10495;50.922;4.760;2023-02-18T01:39:21;12.70;92.40
20672;DHT22;10495;50.922;4.760;2023-02-18T01:41:47;12.60;92.30
20672;DHT22;10495;50.922;4.760;2023-02-18T01:44:14;12.90;92.30
20672;DHT22;10495;50.922;4.760;2023-02-18T01:46:40;12.80;92.30
20672;DHT22;10495;50.922;4.760;2023-02-18T01:49:06;12.90;92.10
20672;DHT22;10495;50.922;4.760;2023-02-18T01:51:39;12.80;92.00
20672;DHT22;10495;50.922;4.760;2023-02-18T01:57:10;12.70;92.20
20672;DHT22;10495;50.922;4.760;2023-02-18T02:00:00;12.60;92.50
20672;DHT22;10495;50.922;4.760;2023-02-18T02:02:29;12.50;92.70
20672;DHT22;10495;50.922;4.760;2023-02-18T02:04:56;12.60;92.60
20672;DHT22;10495;50.922;4.760;2023-02-18T02:07:24;12.60;92.70
20672;DHT22;10495;50.922;4.760;2023-02-18T02:09:52;12.60;92.70
20672;DHT22;10495;50.922;4.760;2023-02-18T02:37:40;12.70;92.30
20672;DHT22;10495;50.922;4.760;2023-02-18T02:43:19;12.60;92.60
20672;DHT22;10495;50.922;4.760;2023-02-18T02:53:39;12.60;92.80
20672;DHT22;10495;50.922;4.760;2023-02-18T02:56:05;12.50;92.80
20672;DHT22;10495;50.922;4.760;2023-02-18T02:58:31;12.60;92.60
20672;DHT22;10495;50.922;4.760;2023-02-18T03:04:30;12.60;92.60
20672;DHT22;10495;50.922;4.760;2023-02-18T03:07:32;12.50;92.90
20672;DHT22;10495;50.922;4.760;2023-02-18T03:13:17;12.60;92.80
20672;DHT22;10495;50.922;4.760;2023-02-18T03:15:52;12.60;92.80
20672;DHT22;10495;50.922;4.760;2023-02-18T03:18:34;12.70;92.80
20672;DHT22;10495;50.922;4.760;2023-02-18T03:21:12;12.60;92.80
20672;DHT22;10495;50.922;4.760;2023-02-18T03:23:45;12.70;92.60
20672;DHT22;10495;50.922;4.760;2023-02-18T03:26:15;12.60;92.60
20672;DHT22;10495;50.922;4.760;2023-02-18T03:28:43;12.60;92.40
20672;DHT22;10495;50.922;4.760;2023-02-18T03:31:13;12.70;92.60
20672;DHT22;10495;50.922;4.760;2023-02-18T03:33:54;12.60;92.70
20672;DHT22;10495;50.922;4.760;2023-02-18T03:36:21;12.60;92.80
20672;DHT22;10495;50.922;4.760;2023-02-18T03:38:55;12.70;92.70
20672;DHT22;10495;50.922;4.760;2023-02-18T03:41:23;12.50;92.70
20672;DHT22;10495;50.922;4.760;2023-02-18T03:43:53;12.30;93.30
20672;DHT22;10495;50.922;4.760;2023-02-18T03:46:20;12.40;93.20
20672;DHT22;10495;50.922;4.760;2023-02-18T03:48:46;12.40;93.10
20672;DHT22;10495;50.922;4.760;2023-02-18T03:51:12;12.30;93.10
20672;DHT22;10495;50.922;4.760;2023-02-18T03:53:37;12.30;93.30
20672;DHT22;10495;50.922;4.760;2023-02-18T03:56:03;12.50;92.80
20672;DHT22;10495;50.922;4.760;2023-02-18T03:58:29;12.50;92.90
20672;DHT22;10495;50.922;4.760;2023-02-18T04:00:55;12.20;93.20
20672;DHT22;10495;50.922;4.760;2023-02-18T04:03:20;12.10;93.50
20672;DHT22;10495;50.922;4.760;2023-02-18T04:05:46;12.10;93.40
20672;DHT22;10495;50.922;4.760;2023-02-18T04:08:12;12.10;93.30
20672;DHT22;10495;50.922;4.760;2023-02-18T04:10:38;12.10;93.50
20672;DHT22;10495;50.922;4.760;2023-02-18T04:13:03;12.20;93.40
20672;DHT22;10495;50.922;4.760;2023-02-18T04:15:29;12.20;93.30
20672;DHT22;10495;50.922;4.760;2023-02-18T04:17:55;12.40;93.00
20672;DHT22;10495;50.922;4.760;2023-02-18T04:20:21;12.30;93.00
20672;DHT22;10495;50.922;4.760;2023-02-18T04:22:47;12.30;93.00
20672;DHT22;10495;50.922;4.760;2023-02-18T04:25:13;12.20;93.00
20672;DHT22;10495;50.922;4.760;2023-02-18T04:27:38;12.20;93.10
20672;DHT22;10495;50.922;4.760;2023-02-18T04:30:06;12.20;93.10
20672;DHT22;10495;50.922;4.760;2023-02-18T04:32:32;12.20;93.10
20672;DHT22;10495;50.922;4.760;2023-02-18T04:34:57;12.10;93.10
20672;DHT22;10495;50.922;4.760;2023-02-18T04:37:23;12.00;93.30
20672;DHT22;10495;50.922;4.760;2023-02-18T04:39:48;12.00;93.40
20672;DHT22;10495;50.922;4.760;2023-02-18T04:42:14;11.90;93.50
20672;DHT22;10495;50.922;4.760;2023-02-18T04:44:40;12.00;93.50
20672;DHT22;10495;50.922;4.760;2023-02-18T04:47:06;12.10;93.30
20672;DHT22;10495;50.922;4.760;2023-02-18T04:49:32;12.10;93.30
20672;DHT22;10495;50.922;4.760;2023-02-18T04:51:57;11.90;93.50
20672;DHT22;10495;50.922;4.760;2023-02-18T04:54:23;12.10;93.30
20672;DHT22;10495;50.922;4.760;2023-02-18T04:56:49;12.20;93.00
20672;DHT22;10495;50.922;4.760;2023-02-18T04:59:14;12.20;93.20
20672;DHT22;10495;50.922;4.760;2023-02-18T05:01:40;12.20;93.20
20672;DHT22;10495;50.922;4.760;2023-02-18T05:04:05;12.20;93.00
20672;DHT22;10495;50.922;4.760;2023-02-18T05:06:31;12.10;93.20
20672;DHT22;10495;50.922;4.760;2023-02-18T05:08:57;12.00;93.30
20672;DHT22;10495;50.922;4.760;2023-02-18T05:11:23;12.10;93.40
20672;DHT22;10495;50.922;4.760;2023-02-18T05:13:48;12.40;92.80
20672;DHT22;10495;50.922;4.760;2023-02-18T05:16:14;12.40;92.70
20672;DHT22;10495;50.922;4.760;2023-02-18T05:18:40;12.20;92.80
20672;DHT22;10495;50.922;4.760;2023-02-18T05:21:05;12.20;92.80
20672;DHT22;10495;50.922;4.760;2023-02-18T05:23:31;12.20;92.90
20672;DHT22;10495;50.922;4.760;2023-02-18T05:25:57;12.20;92.90
20672;DHT22;10495;50.922;4.760;2023-02-18T05:28:22;12.20;92.90
20672;DHT22;10495;50.922;4.760;2023-02-18T05:30:48;12.20;93.00
20672;DHT22;10495;50.922;4.760;2023-02-18T05:33:14;12.30;92.90
20672;DHT22;10495;50.922;4.760;2023-02-18T05:35:39;12.40;92.80
20672;DHT22;10495;50.922;4.760;2023-02-18T05:38:05;12.30;92.80
20672;DHT22;10495;50.922;4.760;2023-02-18T05:40:30;12.30;92.90
20672;DHT22;10495;50.922;4.760;2023-02-18T05:42:56;12.40;92.80
20672;DHT22;10495;50.922;4.760;2023-02-18T05:45:22;12.20;92.80
20672;DHT22;10495;50.922;4.760;2023-02-18T05:47:47;12.10;93.00
20672;DHT22;10495;50.922;4.760;2023-02-18T05:50:13;11.90;93.40
20672;DHT22;10495;50.922;4.760;2023-02-18T05:52:39;12.00;93.30
20672;DHT22;10495;50.922;4.760;2023-02-18T05:55:05;12.00;93.20
20672;DHT22;10495;50.922;4.760;2023-02-18T05:57:30;12.10;93.00
20672;DHT22;10495;50.922;4.760;2023-02-18T05:59:56;11.90;92.90
20672;DHT22;10495;50.922;4.760;2023-02-18T06:02:22;12.00;92.50
20672;DHT22;10495;50.922;4.760;2023-02-18T06:04:47;12.00;92.40
20672;DHT22;10495;50.922;4.760;2023-02-18T06:07:13;12.00;92.30
20672;DHT22;10495;50.922;4.760;2023-02-18T06:09:39;12.00;92.20
20672;DHT22;10495;50.922;4.760;2023-02-18T06:12:05;11.90;92.20
20672;DHT22;10495;50.922;4.760;2023-02-18T06:14:30;12.00;92.10
20672;DHT22;10495;50.922;4.760;2023-02-18T06:16:56;12.20;91.60
20672;DHT22;10495;50.922;4.760;2023-02-18T06:19:22;12.00;91.60
20672;DHT22;10495;50.922;4.760;2023-02-18T06:21:47;12.00;91.60
20672;DHT22;10495;50.922;4.760;2023-02-18T06:24:13;11.90;91.70
20672;DHT22;10495;50.922;4.760;2023-02-18T06:26:39;12.00;91.50
20672;DHT22;10495;50.922;4.760;2023-02-18T06:29:04;12.00;91.30
20672;DHT22;10495;50.922;4.760;2023-02-18T06:31:30;11.90;91.30
20672;DHT22;10495;50.922;4.760;2023-02-18T06:33:56;11.80;91.20
20672;DHT22;10495;50.922;4.760;2023-02-18T06:36:22;11.80;91.30
20672;DHT22;10495;50.922;4.760;2023-02-18T06:38:47;11.90;91.00
20672;DHT22;10495;50.922;4.760;2023-02-18T06:41:13;12.10;90.50
20672;DHT22;10495;50.922;4.760;2023-02-18T06:43:39;12.20;90.20
20672;DHT22;10495;50.922;4.760;2023-02-18T06:46:05;12.10;90.30
20672;DHT22;10495;50.922;4.760;2023-02-18T06:48:31;12.00;90.40
20672;DHT22;10495;50.922;4.760;2023-02-18T06:50:57;12.10;90.20
20672;DHT22;10495;50.922;4.760;2023-02-18T06:53:22;12.10;89.90
20672;DHT22;10495;50.922;4.760;2023-02-18T06:55:48;11.90;90.20
20672;DHT22;10495;50.922;4.760;2023-02-18T06:58:14;11.80;90.10
20672;DHT22;10495;50.922;4.760;2023-02-18T07:00:40;11.90;90.00
20672;DHT22;10495;50.922;4.760;2023-02-18T07:03:06;11.80;89.20
20672;DHT22;10495;50.922;4.760;2023-02-18T07:05:32;12.00;88.70
20672;DHT22;10495;50.922;4.760;2023-02-18T07:07:58;12.00;88.90
20672;DHT22;10495;50.922;4.760;2023-02-18T07:10:24;11.90;89.00
20672;DHT22;10495;50.922;4.760;2023-02-18T07:12:49;11.90;89.40
20672;DHT22;10495;50.922;4.760;2023-02-18T07:15:16;11.90;89.50
20672;DHT22;10495;50.922;4.760;2023-02-18T07:17:41;11.90;89.40
20672;DHT22;10495;50.922;4.760;2023-02-18T07:20:08;11.80;89.90
20672;DHT22;10495;50.922;4.760;2023-02-18T07:22:34;11.90;90.00
20672;DHT22;10495;50.922;4.760;2023-02-18T07:25:00;12.00;89.40
20672;DHT22;10495;50.922;4.760;2023-02-18T07:27:25;11.90;88.70
20672;DHT22;10495;50.922;4.760;2023-02-18T07:29:51;11.70;89.00
20672;DHT22;10495;50.922;4.760;2023-02-18T07:32:18;11.90;88.80
20672;DHT22;10495;50.922;4.760;2023-02-18T07:34:44;11.80;89.20
20672;DHT22;10495;50.922;4.760;2023-02-18T07:37:09;11.80;89.60
20672;DHT22;10495;50.922;4.760;2023-02-18T07:39:40;11.90;88.90
20672;DHT22;10495;50.922;4.760;2023-02-18T07:42:06;12.00;88.60
20672;DHT22;10495;50.922;4.760;2023-02-18T07:44:32;12.10;88.20
20672;DHT22;10495;50.922;4.760;2023-02-18T07:46:58;12.20;88.20
20672;DHT22;10495;50.922;4.760;2023-02-18T07:49:24;12.10;88.00
20672;DHT22;10495;50.922;4.760;2023-02-18T07:51:50;12.20;87.70
20672;DHT22;10495;50.922;4.760;2023-02-18T07:54:16;12.00;87.90
20672;DHT22;10495;50.922;4.760;2023-02-18T07:56:42;12.20;87.90
20672;DHT22;10495;50.922;4.760;2023-02-18T07:59:08;12.10;87.80
20672;DHT22;10495;50.922;4.760;2023-02-18T08:01:34;12.30;87.50
20672;DHT22;10495;50.922;4.760;2023-02-18T08:03:59;12.10;87.80
20672;DHT22;10495;50.922;4.760;2023-02-18T08:06:35;12.20;88.00
20672;DHT22;10495;50.922;4.760;2023-02-18T08:09:02;12.10;88.30
20672;DHT22;10495;50.922;4.760;2023-02-18T08:11:29;11.90;88.90
20672;DHT22;10495;50.922;4.760;2023-02-18T08:13:54;11.90;89.00
20672;DHT22;10495;50.922;4.760;2023-02-18T08:16:21;12.00;89.20
20672;DHT22;10495;50.922;4.760;2023-02-18T08:18:48;12.10;88.50
20672;DHT22;10495;50.922;4.760;2023-02-18T08:21:15;12.40;87.50
20672;DHT22;10495;50.922;4.760;2023-02-18T08:23:41;12.30;87.30
20672;DHT22;10495;50.922;4.760;2023-02-18T08:26:07;12.30;86.80
20672;DHT22;10495;50.922;4.760;2023-02-18T08:28:34;12.20;87.40
20672;DHT22;10495;50.922;4.760;2023-02-18T08:31:00;12.10;88.30
20672;DHT22;10495;50.922;4.760;2023-02-18T08:33:25;12.20;87.80
20672;DHT22;10495;50.922;4.760;2023-02-18T08:35:54;12.40;86.80
20672;DHT22;10495;50.922;4.760;2023-02-18T08:38:20;12.30;87.00
20672;DHT22;10495;50.922;4.760;2023-02-18T08:40:46;12.40;86.70
20672;DHT22;10495;50.922;4.760;2023-02-18T08:43:12;12.50;86.10
20672;DHT22;10495;50.922;4.760;2023-02-18T08:45:39;12.50;86.00
20672;DHT22;10495;50.922;4.760;2023-02-18T08:48:06;12.50;86.30
20672;DHT22;10495;50.922;4.760;2023-02-18T08:50:32;12.60;85.60
20672;DHT22;10495;50.922;4.760;2023-02-18T08:52:58;12.40;85.80
20672;DHT22;10495;50.922;4.760;2023-02-18T08:55:26;12.40;86.00
20672;DHT22;10495;50.922;4.760;2023-02-18T08:57:52;12.40;86.00
20672;DHT22;10495;50.922;4.760;2023-02-18T09:00:18;12.60;85.50
20672;DHT22;10495;50.922;4.760;2023-02-18T09:02:44;12.60;85.50
20672;DHT22;10495;50.922;4.760;2023-02-18T09:05:11;12.60;84.90
20672;DHT22;10495;50.922;4.760;2023-02-18T09:07:37;12.70;84.80
20672;DHT22;10495;50.922;4.760;2023-02-18T09:10:03;12.70;84.40
20672;DHT22;10495;50.922;4.760;2023-02-18T09:12:29;12.50;85.50
20672;DHT22;10495;50.922;4.760;2023-02-18T09:14:55;12.60;85.70
20672;DHT22;10495;50.922;4.760;2023-02-18T09:17:20;12.70;85.00
20672;DHT22;10495;50.922;4.760;2023-02-18T09:19:46;12.70;84.70
20672;DHT22;10495;50.922;4.760;2023-02-18T09:22:11;12.70;84.60
20672;DHT22;10495;50.922;4.760;2023-02-18T09:24:39;12.80;84.60
20672;DHT22;10495;50.922;4.760;2023-02-18T09:27:04;12.80;84.30
20672;DHT22;10495;50.922;4.760;2023-02-18T09:29:31;12.90;83.80
20672;DHT22;10495;50.922;4.760;2023-02-18T09:32:02;12.90;84.10
20672;DHT22;10495;50.922;4.760;2023-02-18T09:34:28;13.00;84.10
20672;DHT22;10495;50.922;4.760;2023-02-18T09:36:54;13.00;83.60
20672;DHT22;10495;50.922;4.760;2023-02-18T09:39:19;13.00;83.80
20672;DHT22;10495;50.922;4.760;2023-02-18T09:41:48;12.60;84.20
20672;DHT22;10495;50.922;4.760;2023-02-18T09:44:22;12.80;84.10
20672;DHT22;10495;50.922;4.760;2023-02-18T09:49:29;13.00;83.60
20672;DHT22;10495;50.922;4.760;2023-02-18T09:52:05;12.80;84.20
20672;DHT22;10495;50.922;4.760;2023-02-18T09:54:31;12.80;84.70
20672;DHT22;10495;50.922;4.760;2023-02-18T09:56:57;12.90;84.40
20672;DHT22;10495;50.922;4.760;2023-02-18T09:59:24;12.80;84.60
20672;DHT22;10495;50.922;4.760;2023-02-18T10:01:51;12.90;84.70
20672;DHT22;10495;50.922;4.760;2023-02-18T10:04:23;13.00;84.60
20672;DHT22;10495;50.922;4.760;2023-02-18T10:06:53;13.00;84.10
20672;DHT22;10495;50.922;4.760;2023-02-18T10:09:24;13.10;84.30
20672;DHT22;10495;50.922;4.760;2023-02-18T10:11:55;13.00;84.00
20672;DHT22;10495;50.922;4.760;2023-02-18T10:14:21;12.90;84.90
20672;DHT22;10495;50.922;4.760;2023-02-18T10:16:49;12.90;85.00
20672;DHT22;10495;50.922;4.760;2023-02-18T10:19:48;12.80;85.60
20672;DHT22;10495;50.922;4.760;2023-02-18T10:22:15;12.90;85.10
20672;DHT22;10495;50.922;4.760;2023-02-18T10:24:51;12.90;85.40
20672;DHT22;10495;50.922;4.760;2023-02-18T10:29:48;13.10;84.60
20672;DHT22;10495;50.922;4.760;2023-02-18T10:32:26;13.00;85.30
20672;DHT22;10495;50.922;4.760;2023-02-18T10:37:53;13.00;85.20
20672;DHT22;10495;50.922;4.760;2023-02-18T10:48:31;13.00;86.10
20672;DHT22;10495;50.922;4.760;2023-02-18T10:51:01;12.90;86.50
20672;DHT22;10495;50.922;4.760;2023-02-18T10:53:37;13.10;85.90
20672;DHT22;10495;50.922;4.760;2023-02-18T10:56:05;13.20;85.60
20672;DHT22;10495;50.922;4.760;2023-02-18T10:58:45;13.10;85.90
20672;DHT22;10495;50.922;4.760;2023-02-18T11:01:19;13.00;86.50
20672;DHT22;10495;50.922;4.760;2023-02-18T11:03:49;13.20;86.20
20672;DHT22;10495;50.922;4.760;2023-02-18T11:06:19;13.20;85.70
20672;DHT22;10495;50.922;4.760;2023-02-18T11:08:46;13.20;85.70
20672;DHT22;10495;50.922;4.760;2023-02-18T11:11:32;13.10;86.40
20672;DHT22;10495;50.922;4.760;2023-02-18T11:14:00;13.10;86.50
20672;DHT22;10495;50.922;4.760;2023-02-18T11:16:37;13.20;86.80
20672;DHT22;10495;50.922;4.760;2023-02-18T11:19:03;13.30;86.30
20672;DHT22;10495;50.922;4.760;2023-02-18T11:21:36;13.30;86.20
20672;DHT22;10495;50.922;4.760;2023-02-18T11:24:09;13.30;86.50
20672;DHT22;10495;50.922;4.760;2023-02-18T11:26:38;13.30;86.40
20672;DHT22;10495;50.922;4.760;2023-02-18T11:29:20;13.10;86.80
20672;DHT22;10495;50.922;4.760;2023-02-18T11:31:49;13.00;87.10
20672;DHT22;10495;50.922;4.760;2023-02-18T11:34:28;13.20;87.50
20672;DHT22;10495;50.922;4.760;2023-02-18T11:36:55;13.20;87.20
20672;DHT22;10495;50.922;4.760;2023-02-18T11:39:32;13.20;87.10
20672;DHT22;10495;50.922;4.760;2023-02-18T11:42:04;13.30;87.20
20672;DHT22;10495;50.922;4.760;2023-02-18T11:44:35;13.30;86.90
20672;DHT22;10495;50.922;4.760;2023-02-18T11:49:43;13.50;86.60
20672;DHT22;10495;50.922;4.760;2023-02-18T11:52:33;13.50;86.70
20672;DHT22;10495;50.922;4.760;2023-02-18T11:57:34;13.60;86.10
20672;DHT22;10495;50.922;4.760;2023-02-18T12:00:02;13.60;86.10
20672;DHT22;10495;50.922;4.760;2023-02-18T12:05:04;13.60;85.90
20672;DHT22;10495;50.922;4.760;2023-02-18T12:07:56;13.40;86.50
20672;DHT22;10495;50.922;4.760;2023-02-18T12:13:24;13.60;86.00
20672;DHT22;10495;50.922;4.760;2023-02-18T12:24:31;13.50;86.40
20672;DHT22;10495;50.922;4.760;2023-02-18T12:27:09;13.60;85.80
20672;DHT22;10495;50.922;4.760;2023-02-18T12:30:28;13.50;86.40
20672;DHT22;10495;50.922;4.760;2023-02-18T12:44:37;13.50;86.80
20672;DHT22;10495;50.922;4.760;2023-02-18T12:51:03;13.60;86.10
20672;DHT22;10495;50.922;4.760;2023-02-18T12:53:38;13.60;86.00
20672;DHT22;10495;50.922;4.760;2023-02-18T13:09:18;13.80;85.90
20672;DHT22;10495;50.922;4.760;2023-02-18T13:14:48;13.50;88.10
20672;DHT22;10495;50.922;4.760;2023-02-18T13:17:17;13.40;89.30
20672;DHT22;10495;50.922;4.760;2023-02-18T13:19:54;13.30;90.30
20672;DHT22;10495;50.922;4.760;2023-02-18T13:22:22;13.30;90.30
20672;DHT22;10495;50.922;4.760;2023-02-18T13:24:50;13.30;90.40
20672;DHT22;10495;50.922;4.760;2023-02-18T13:27:35;13.30;90.50
20672;DHT22;10495;50.922;4.760;2023-02-18T13:35:57;13.50;90.40
20672;DHT22;10495;50.922;4.760;2023-02-18T13:38:30;13.50;90.50
20672;DHT22;10495;50.922;4.760;2023-02-18T13:41:01;13.40;90.70
20672;DHT22;10495;50.922;4.760;2023-02-18T13:43:30;13.50;90.80
20672;DHT22;10495;50.922;4.760;2023-02-18T13:49:06;13.30;91.00
20672;DHT22;10495;50.922;4.760;2023-02-18T13:51:44;13.50;90.70
20672;DHT22;10495;50.922;4.760;2023-02-18T13:56:41;13.30;91.00
20672;DHT22;10495;50.922;4.760;2023-02-18T13:59:17;13.20;91.40
20672;DHT22;10495;50.922;4.760;2023-02-18T14:01:48;13.20;91.50
20672;DHT22;10495;50.922;4.760;2023-02-18T14:04:34;13.20;91.50
20672;DHT22;10495;50.922;4.760;2023-02-18T14:10:25;13.10;91.90
20672;DHT22;10495;50.922;4.760;2023-02-18T14:26:06;13.10;91.70
20672;DHT22;10495;50.922;4.760;2023-02-18T14:33:40;13.30;91.00
20672;DHT22;10495;50.922;4.760;2023-02-18T14:36:35;13.30;91.00
20672;DHT22;10495;50.922;4.760;2023-02-18T14:42:16;13.30;91.00
20672;DHT22;10495;50.922;4.760;2023-02-18T14:48:02;13.20;91.10
20672;DHT22;10495;50.922;4.760;2023-02-18T14:50:34;13.20;91.20
20672;DHT22;10495;50.922;4.760;2023-02-18T14:53:11;13.30;91.00
20672;DHT22;10495;50.922;4.760;2023-02-18T14:55:44;13.30;91.10
20672;DHT22;10495;50.922;4.760;2023-02-18T14:58:32;13.30;91.10
20672;DHT22;10495;50.922;4.760;2023-02-18T15:03:53;13.30;91.00
20672;DHT22;10495;50.922;4.760;2023-02-18T15:08:58;13.40;91.00
20672;DHT22;10495;50.922;4.760;2023-02-18T15:11:34;13.30;91.00
20672;DHT22;10495;50.922;4.760;2023-02-18T15:14:03;13.30;91.00
20672;DHT22;10495;50.922;4.760;2023-02-18T15:16:34;13.30;91.00
20672;DHT22;10495;50.922;4.760;2023-02-18T15:19:12;13.20;91.20
20672;DHT22;10495;50.922;4.760;2023-02-18T15:21:41;13.50;90.90
20672;DHT22;10495;50.922;4.760;2023-02-18T15:24:25;13.60;90.40
20672;DHT22;10495;50.922;4.760;2023-02-18T15:26:53;13.50;90.10
20672;DHT22;10495;50.922;4.760;2023-02-18T15:29:21;13.50;90.40
20672;DHT22;10495;50.922;4.760;2023-02-18T15:31:47;13.60;90.10
20672;DHT22;10495;50.922;4.760;2023-02-18T15:37:00;13.60;90.00
20672;DHT22;10495;50.922;4.760;2023-02-18T15:39:28;13.50;90.10
20672;DHT22;10495;50.922;4.760;2023-02-18T15:42:07;13.30;90.40
20672;DHT22;10495;50.922;4.760;2023-02-18T15:44:35;13.30;90.40
20672;DHT22;10495;50.922;4.760;2023-02-18T15:47:04;13.30;90.40
20672;DHT22;10495;50.922;4.760;2023-02-18T15:49:32;13.40;90.20
20672;DHT22;10495;50.922;4.760;2023-02-18T15:52:00;13.40;90.00
20672;DHT22;10495;50.922;4.760;2023-02-18T15:54:27;13.40;90.10
20672;DHT22;10495;50.922;4.760;2023-02-18T15:56:55;13.50;89.90
20672;DHT22;10495;50.922;4.760;2023-02-18T15:59:27;13.50;89.80
20672;DHT22;10495;50.922;4.760;2023-02-18T16:02:13;13.50;89.70
20672;DHT22;10495;50.922;4.760;2023-02-18T16:04:44;13.50;89.40
20672;DHT22;10495;50.922;4.760;2023-02-18T16:07:26;13.30;89.80
20672;DHT22;10495;50.922;4.760;2023-02-18T16:10:24;13.40;90.00
20672;DHT22;10495;50.922;4.760;2023-02-18T16:12:54;13.40;89.80
20672;DHT22;10495;50.922;4.760;2023-02-18T16:15:45;13.50;89.60
20672;DHT22;10495;50.922;4.760;2023-02-18T16:18:34;13.20;90.10
20672;DHT22;10495;50.922;4.760;2023-02-18T16:23:42;13.30;89.90
20672;DHT22;10495;50.922;4.760;2023-02-18T16:26:21;13.30;90.00
20672;DHT22;10495;50.922;4.760;2023-02-18T16:28:50;13.10;90.20
20672;DHT22;10495;50.922;4.760;2023-02-18T16:31:16;13.20;90.30
20672;DHT22;10495;50.922;4.760;2023-02-18T16:33:42;13.20;90.20
20672;DHT22;10495;50.922;4.760;2023-02-18T16:36:13;13.10;90.30
20672;DHT22;10495;50.922;4.760;2023-02-18T16:38:41;13.20;90.20
20672;DHT22;10495;50.922;4.760;2023-02-18T16:41:09;13.30;90.00
20672;DHT22;10495;50.922;4.760;2023-02-18T16:43:36;13.30;90.10
20672;DHT22;10495;50.922;4.760;2023-02-18T16:46:13;13.30;90.10
20672;DHT22;10495;50.922;4.760;2023-02-18T16:48:41;13.30;90.00
20672;DHT22;10495;50.922;4.760;2023-02-18T16:51:17;13.30;90.00
20672;DHT22;10495;50.922;4.760;2023-02-18T16:53:45;13.30;90.00
20672;DHT22;10495;50.922;4.760;2023-02-18T16:56:26;13.30;89.90
20672;DHT22;10495;50.922;4.760;2023-02-18T16:58:54;13.30;90.00
20672;DHT22;10495;50.922;4.760;2023-02-18T17:01:28;13.40;89.30
20672;DHT22;10495;50.922;4.760;2023-02-18T17:03:56;13.40;89.00
20672;DHT22;10495;50.922;4.760;2023-02-18T17:06:23;13.20;89.10
20672;DHT22;10495;50.922;4.760;2023-02-18T17:08:49;13.20;89.90
20672;DHT22;10495;50.922;4.760;2023-02-18T17:11:24;13.10;90.00
20672;DHT22;10495;50.922;4.760;2023-02-18T17:13:51;13.20;90.00
20672;DHT22;10495;50.922;4.760;2023-02-18T17:16:18;13.40;89.40
20672;DHT22;10495;50.922;4.760;2023-02-18T17:18:45;13.10;90.00
20672;DHT22;10495;50.922;4.760;2023-02-18T17:21:16;13.20;90.00
20672;DHT22;10495;50.922;4.760;2023-02-18T17:23:43;13.10;90.00
20672;DHT22;10495;50.922;4.760;2023-02-18T17:26:13;13.10;90.10
20672;DHT22;10495;50.922;4.760;2023-02-18T17:28:39;13.00;90.20
20672;DHT22;10495;50.922;4.760;2023-02-18T17:31:05;13.00;90.20
20672;DHT22;10495;50.922;4.760;2023-02-18T17:33:33;13.30;90.00
20672;DHT22;10495;50.922;4.760;2023-02-18T17:35:59;13.20;90.00
20672;DHT22;10495;50.922;4.760;2023-02-18T17:38:25;13.20;90.00
20672;DHT22;10495;50.922;4.760;2023-02-18T17:40:51;13.20;90.10
20672;DHT22;10495;50.922;4.760;2023-02-18T17:43:17;13.10;90.10
20672;DHT22;10495;50.922;4.760;2023-02-18T17:45:47;13.20;90.10
20672;DHT22;10495;50.922;4.760;2023-02-18T17:48:13;13.20;90.20
20672;DHT22;10495;50.922;4.760;2023-02-18T17:50:39;12.90;90.40
20672;DHT22;10495;50.922;4.760;2023-02-18T17:53:05;12.90;90.70
20672;DHT22;10495;50.922;4.760;2023-02-18T17:55:33;12.90;90.70
20672;DHT22;10495;50.922;4.760;2023-02-18T17:57:59;12.90;90.80
20672;DHT22;10495;50.922;4.760;2023-02-18T18:00:29;12.90;90.70
20672;DHT22;10495;50.922;4.760;2023-02-18T18:02:55;12.90;90.70
20672;DHT22;10495;50.922;4.760;2023-02-18T18:05:29;13.00;90.60
20672;DHT22;10495;50.922;4.760;2023-02-18T18:07:56;13.00;90.60
20672;DHT22;10495;50.922;4.760;2023-02-18T18:10:24;13.10;90.40
20672;DHT22;10495;50.922;4.760;2023-02-18T18:12:53;13.10;90.40
20672;DHT22;10495;50.922;4.760;2023-02-18T18:15:26;13.10;90.40
20672;DHT22;10495;50.922;4.760;2023-02-18T18:17:52;13.10;90.30
20672;DHT22;10495;50.922;4.760;2023-02-18T18:20:19;13.10;90.50
20672;DHT22;10495;50.922;4.760;2023-02-18T18:22:45;13.10;90.40
20672;DHT22;10495;50.922;4.760;2023-02-18T18:25:24;13.20;90.40